Sierra Nevada Aquatic Research Lab (SNARL) Reserve, California Weather observations

Data are for 10 minute period ending at time listed.
 Day   Time   Solar   Ave.   Ave.  Ave.  Vector  Max.   Baro.   Total    
  of    of     Rad.   Air    Rel.  Wind   Wind   Wind  Press.  Precip.   
Year   Day            Temp.  Hum.  Speed  Dir.   Gust                    
2018   (PST)  Kw/m2    F      %     mph   deg.    mph    mb.     in.     
-------------------------------------------------------------------------
 227   21:40   0.00   54.4    54    3.4   249     5.4   789.7    0.00 
 227   21:50   0.00   54.2    55    3.4   251     6.2   789.7    0.00 
 227   22:00   0.00   55.3    53    4.4   242     6.7   789.7    0.00 
 227   22:10   0.00   55.3    54    3.2   244     4.6   789.7    0.00 
 227   22:20   0.00   56.0    54    2.3   248     3.9   789.7    0.00 
 227   22:30   0.00   55.0    57    1.2    13     5.7   789.9    0.00 
 227   22:40   0.00   52.5    58    0.4   116     5.5   790.0    0.00 
 227   22:50   0.00   51.0    60    1.8   231     2.8   790.0    0.00 
 227   23:00   0.00   51.7    58    2.9   218     4.5   790.0    0.00 
 227   23:10   0.00   51.6    61    2.1   255     3.7   790.1    0.00 
 227   23:20   0.00   51.1    62    1.4   233     2.4   790.0    0.00 
 227   23:30   0.00   50.9    63    0.3   202     1.7   790.0    0.00 
 227   23:40   0.00   50.5    66    0.4   268     2.3   790.0    0.00 
 227   23:50   0.00   49.4    64    1.0   123     2.1   790.1    0.00 
 228    0:00   0.00   48.4    66    1.6   243     3.2   790.2    0.00 
 228    0:10   0.00   48.2    65    1.8   203     2.4   790.2    0.00 
 228    0:20   0.00   48.7    65    4.2   234     5.5   790.2    0.00 
 228    0:30   0.00   51.2    62    5.4   250     6.6   790.2    0.00 
 228    0:40   0.00   52.5    61    2.6   229     4.0   790.2    0.00 
 228    0:50   0.00   52.1    61    3.8   315     6.0   790.3    0.00 
 228    1:00   0.00   52.3    57    4.0   315     6.3   790.3    0.00 
 228    1:10   0.00   51.0    60    2.3   313     4.1   790.3    0.00 
 228    1:20   0.00   48.7    66    1.5   224     3.9   790.3    0.00 
 228    1:30   0.00   48.0    68    3.0   278     8.0   790.3    0.00 
 228    1:40   0.00   52.6    63    4.5   288     8.2   790.3    0.00 
 228    1:50   0.00   55.3    56    4.3   286     8.3   790.3    0.00 
 228    2:00   0.00   53.3    61    2.8   236     4.7   790.2    0.00 
 228    2:10   0.00   51.3    64    2.0    39     4.6   790.3    0.00 
 228    2:20   0.00   50.3    64    1.5   195     3.8   790.4    0.00 
 228    2:30   0.00   49.2    65    2.3   228     3.6   790.3    0.00 
 228    2:40   0.00   48.2    68    1.7   230     3.0   790.3    0.00 
 228    2:50   0.00   47.5    70    1.2   251     3.3   790.3    0.00 
 228    3:00   0.00   47.6    71    0.5   273     1.5   790.3    0.00 
 228    3:10   0.00   47.0    72    0.9   123     2.3   790.2    0.00 
 228    3:20   0.00   47.2    71    2.4    42     3.8   790.3    0.00 
 228    3:30   0.00   45.5    73    1.5   249     3.8   790.4    0.00 
 228    3:40   0.00   45.4    74    0.8   239     2.8   790.4    0.00 
 228    3:50   0.00   44.8    74    2.7   236     4.3   790.4    0.00 
 228    4:00   0.00   43.9    75    1.4   184     3.1   790.5    0.00 
 228    4:10   0.00   44.0    76    1.5   204     2.5   790.6    0.00 
 228    4:20   0.00   44.7    75    1.8   236     4.3   790.6    0.00 
 228    4:30   0.00   45.3    77    2.8   257     4.6   790.7    0.00 
 228    4:40   0.00   45.4    79    2.4   320     5.0   790.7    0.00 
 228    4:50   0.00   44.9    75    2.2   277     4.7   790.8    0.00 
 228    5:00   0.00   43.8    79    1.4   268     3.4   790.9    0.00 
 228    5:10   0.00   44.0    80    2.7   309     5.3   791.0    0.00 
 228    5:20   0.00   43.8    77    1.7   260     3.5   791.1    0.00 
 228    5:30   0.01   42.6    80    0.8   286     3.1   791.1    0.00 
 228    5:40   0.04   42.6    82    0.8   233     1.6   791.2    0.00 
 228    5:50   0.06   43.9    78    1.4   251     2.6   791.3    0.00 
 228    6:00   0.09   47.0    72    0.6   168     1.7   791.3    0.00 
 228    6:10   0.12   48.9    71    0.9   265     2.2   791.4    0.00 
 228    6:20   0.15   52.8    64    0.0   214     0.7   791.5    0.00 
 228    6:30   0.18   56.6    58    0.2   223     1.2   791.6    0.00 
 228    6:40   0.21   59.3    52    0.1    13     0.7   791.7    0.00 
 228    6:50   0.25   60.2    50    0.4   356     1.5   791.7    0.00 
 228    7:00   0.28   61.8    48    0.5   338     2.2   791.8    0.00 
 228    7:10   0.32   62.5    47    1.3   334     3.1   791.8    0.00 
 228    7:20   0.35   64.8    44    0.9    57     2.2   791.9    0.00 
 228    7:30   0.38   66.1    44    1.7    73     3.4   791.9    0.00 
 228    7:40   0.42   66.8    44    2.0    47     3.7   791.9    0.00 
 228    7:50   0.46   67.9    42    2.2    61     4.0   792.0    0.00 
 228    8:00   0.49   68.8    42    2.3    79     4.1   792.0    0.00 
 228    8:10   0.52   69.0    44    3.1    65     6.1   792.0    0.00 
 228    8:20   0.53   69.6    44    2.0    63     4.5   792.0    0.00 
 228    8:30   0.57   71.1    38    2.6    66     4.0   792.0    0.00 
 228    8:40   0.61   72.1    37    2.3    70     4.9   791.9    0.00 
 228    8:50   0.64   73.8    34    2.6    71     6.5   791.9    0.00 
 228    9:00   0.67   74.2    33    3.5    53     7.6   791.8    0.00 
 228    9:10   0.69   74.8    33    3.2    64     8.0   791.8    0.00 
 228    9:20   0.72   75.1    33    3.9    69     7.7   791.9    0.00 
 228    9:30   0.74   75.0    31    5.2    70    10.3   791.9    0.00 
 228    9:40   0.77   75.5    30    5.0    90     9.9   791.9    0.00 
 228    9:50   0.79   76.2    29    9.5   106    15.3   791.9    0.00 
 228   10:00   0.81   76.5    29   10.5   102    14.3   791.9    0.00 
 228   10:10   0.82   76.9    29   10.0   115    17.0   791.9    0.00 
 228   10:20   0.81   77.5    28    8.9   110    14.0   791.9    0.00 
 228   10:30   0.86   78.1    28    8.1    93    15.9   791.9    0.00 
 228   10:40   0.79   78.0    28    9.1   112    17.3   791.9    0.00 
 228   10:50   0.89   78.3    28   10.3   104    15.2   791.9    0.00 
 228   11:00   0.93   78.5    28    8.7    96    15.9   791.8    0.00 
 228   11:10   0.95   79.0    27    9.9   107    17.7   791.8    0.00 
 228   11:20   0.96   79.7    26   10.9   102    17.8   791.8    0.00 
 228   11:30   0.97   79.8    26    9.4    96    19.1   791.8    0.00 
 228   11:40   0.93   79.7    26    7.7    89    18.3   791.7    0.00 
 228   11:50   0.93   80.3    25    7.2    93    14.7   791.7    0.00 
 228   12:00   0.99   81.0    25    9.0   102    16.4   791.7    0.00 
 228   12:10   1.00   81.2    25    6.7    70    15.1   791.6    0.00 
 228   12:20   0.89   81.8    25    7.5    87    14.2   791.5    0.00 
 228   12:30   1.02   82.1    25    7.7    83    15.7   791.4    0.00 
 228   12:40   0.64   81.7    25    9.0    88    17.8   791.3    0.00 
 228   12:50   0.30   79.1    27    5.2    60    17.6   791.3    0.00 
 228   13:00   0.57   78.3    27    4.2    70    17.9   791.3    0.00 
 228   13:10   0.92   81.3    25    5.7   344    10.7   791.2    0.00 
 228   13:20   0.31   81.0    24    3.9   331     8.3   791.2    0.00 
 228   13:30   0.19   78.3    27    7.2   339    13.6   791.2    0.00 
 228   13:40   0.17   75.9    28    8.1   330    16.4   791.3    0.00 
 228   13:50   0.17   75.0    29    5.5   348    12.3   791.3    0.00 
 228   14:00   0.28   74.8    30    5.5   358    10.6   791.3    0.00 
 228   14:10   0.60   76.4    28    6.7   349    14.9   791.3    0.00 
 228   14:20   0.62   77.8    30    3.7    18     8.5   791.3    0.00 
 228   14:30   0.93   80.2    26    6.9    24    14.2   791.3    0.00 
 228   14:40   0.45   78.3    28    9.7    24    18.5   791.3    0.00 
 228   14:50   0.16   75.1    29    4.7    10    12.5   791.3    0.00 
 228   15:00   0.27   75.3    27    6.7    19    14.2   791.2    0.00 
 228   15:10   0.41   76.1    26    3.1    13     7.0   791.2    0.00 
 228   15:20   0.52   79.3    24    2.0    55     5.0   791.0    0.00 
 228   15:30   0.59   79.8    24    3.2   320     6.6   790.9    0.00 
 228   15:40   0.57   80.4    24    2.7   330    14.6   790.9    0.00 
 228   15:50   0.54   80.2    24    8.6   272    17.8   790.8    0.00 
 228   16:00   0.51   79.7    23   10.6   284    18.5   790.8    0.00 
 228   16:10   0.48   79.2    23    9.9   283    17.6   790.8    0.00 
 228   16:20   0.46   79.4    23   10.8   264    17.9   790.8    0.00 
 228   16:30   0.41   79.4    24   10.4   254    18.1   790.9    0.00 
 228   16:40   0.38   78.9    23    9.9   261    15.4   791.0    0.00 
 228   16:50   0.34   78.8    24   10.4   247    16.4   791.0    0.00 
 228   17:00   0.31   78.8    23    8.9   258    15.4   791.0    0.00 
 228   17:10   0.28   78.3    23    9.9   248    15.0   791.0    0.00 
 228   17:20   0.25   78.0    24    9.0   242    13.4   790.9    0.00 
 228   17:30   0.18   77.6    24   10.4   241    15.6   790.9    0.00 
 228   17:40   0.12   76.3    24   11.2   231    18.1   791.0    0.00 
 228   17:50   0.11   75.8    24    9.7   230    15.9   791.0    0.00 
 228   18:00   0.05   75.1    25   10.7   226    17.2   791.1    0.00 
 228   18:10   0.04   74.4    25   12.2   225    18.6   791.0    0.00 
 228   18:20   0.03   73.9    25   13.3   222    21.5   791.1    0.00 
 228   18:30   0.02   73.3    26   14.8   228    20.4   791.1    0.00 
 228   18:40   0.01   72.9    26   11.8   232    17.2   791.2    0.00 
 228   18:50   0.01   72.4    27   11.9   223    18.1   791.3    0.00 
 228   19:00   0.00   72.1    28   13.9   231    20.1   791.4    0.00 
 228   19:10   0.00   72.1    28   14.9   227    21.4   791.4    0.00 
 228   19:20   0.00   71.8    29   13.5   220    19.3   791.5    0.00 
 228   19:30   0.00   71.5    30   13.1   218    18.5   791.6    0.00 
 228   19:40   0.00   71.3    31   10.7   212    16.7   791.8    0.00 
 228   19:50   0.00   69.3    33    4.1   147     8.5   792.0    0.00 
 228   20:00   0.00   66.9    37    3.7     2     7.5   792.0    0.00 
 228   20:10   0.00   65.5    38    3.4   353     5.6   792.1    0.00 
 228   20:20   0.00   64.2    40    2.1    55     4.1   792.3    0.00 
 228   20:30   0.00   62.8    42    3.7   317     7.5   792.5    0.00 
 228   20:40   0.00   61.5    42    4.7   244     7.5   792.6    0.00 
 228   20:50   0.00   59.6    44    3.8   228     6.7   792.6    0.00 
 228   21:00   0.00   59.3    45    4.1   240     6.5   792.7    0.00 
 228   21:10   0.00   58.8    46    5.8   243     8.5   792.7    0.00 
 228   21:20   0.00   58.4    47    2.5   232     5.0   792.7    0.00 
 228   21:30   0.00   58.7    46    2.3   240     5.3   792.7    0.00 

Return to SNARL Reserve graphs page.


Western Regional Climate Center,wrcc@dri.edu